createdAt,value
2018-04-29T00:01:42.623Z,100150.52
2018-04-29T00:04:10.339Z,100142.52
2018-04-29T00:06:38.063Z,100141.44
2018-04-29T00:09:05.782Z,100140.48
2018-04-29T00:11:33.434Z,100149.59
2018-04-29T00:14:01.082Z,100152.30
2018-04-29T00:16:28.705Z,100150.30
2018-04-29T00:18:56.309Z,100159.80
2018-04-29T00:21:23.981Z,100159.84
2018-04-29T00:23:51.669Z,100158.78
2018-04-29T00:26:19.385Z,100158.75
2018-04-29T00:28:47.090Z,100155.57
2018-04-29T00:31:14.767Z,100154.55
2018-04-29T00:33:42.434Z,100159.88
2018-04-29T00:36:10.154Z,100158.87
2018-04-29T00:38:37.852Z,100160.17
2018-04-29T00:41:05.486Z,100163.59
2018-04-29T00:43:33.186Z,100162.95
2018-04-29T00:46:00.865Z,100163.02
2018-04-29T00:48:28.563Z,100169.06
2018-04-29T00:50:56.234Z,100174.19
2018-04-29T00:53:23.845Z,100161.89
2018-04-29T00:55:51.471Z,100168.83
2018-04-29T00:58:19.154Z,100161.70
2018-04-29T01:00:46.770Z,100161.08
2018-04-29T01:03:14.470Z,100156.20
2018-04-29T01:05:42.121Z,100156.20
2018-04-29T01:08:09.724Z,100155.41
2018-04-29T01:10:37.322Z,100160.73
2018-04-29T01:13:04.949Z,100153.93
2018-04-29T01:15:32.529Z,100156.28
2018-04-29T01:18:00.157Z,100163.75
2018-04-29T01:20:27.792Z,100159.23
2018-04-29T01:22:55.465Z,100148.81
2018-04-29T01:25:23.053Z,100159.37
2018-04-29T01:27:50.669Z,100152.70
2018-04-29T01:30:18.254Z,100154.92
2018-04-29T01:32:45.846Z,100150.17
2018-04-29T01:35:13.473Z,100157.48
2018-04-29T01:37:41.065Z,100153.91
2018-04-29T01:40:08.665Z,100155.98
2018-04-29T01:42:36.306Z,100147.39
2018-04-29T01:45:03.929Z,100143.88
2018-04-29T01:47:31.529Z,100137.95
2018-04-29T01:49:59.165Z,100138.49
2018-04-29T01:52:26.822Z,100135.30
2018-04-29T01:54:54.430Z,100137.17
2018-04-29T01:57:22.053Z,100138.89
2018-04-29T01:59:49.670Z,100135.97
2018-04-29T02:02:17.262Z,100123.26
2018-04-29T02:04:44.889Z,100127.94
2018-04-29T02:07:12.490Z,100123.19
2018-04-29T02:09:40.105Z,100129.49
2018-04-29T02:12:07.739Z,100126.03
2018-04-29T02:14:35.334Z,100130.11
2018-04-29T02:17:02.942Z,100123.34
2018-04-29T02:19:30.561Z,100114.14
2018-04-29T02:21:58.161Z,100119.38
2018-04-29T02:24:25.789Z,100120.64
2018-04-29T02:26:53.530Z,100119.06
2018-04-29T02:29:21.144Z,100119.23
2018-04-29T02:31:48.790Z,100117.06
2018-04-29T02:34:16.486Z,100116.52
2018-04-29T02:36:44.083Z,100114.87
2018-04-29T02:39:11.700Z,100118.55
2018-04-29T02:41:39.633Z,100113.73
2018-04-29T02:44:07.245Z,100118.75
2018-04-29T02:46:34.862Z,100114.18
2018-04-29T02:49:02.505Z,100121.11
2018-04-29T02:51:30.099Z,100114.17
2018-04-29T02:53:57.730Z,100117.25
2018-04-29T02:56:25.358Z,100117.06
2018-04-29T02:58:52.980Z,100116.67
2018-04-29T03:01:20.601Z,100110.11
2018-04-29T03:03:48.229Z,100112.02
2018-04-29T03:06:15.830Z,100110.48
2018-04-29T03:08:43.453Z,100110.67
2018-04-29T03:11:11.118Z,100108.22
2018-04-29T03:13:38.705Z,100105.83
2018-04-29T03:16:06.369Z,100103.91
2018-04-29T03:18:34.013Z,100107.09
2018-04-29T03:21:03.150Z,100107.95
2018-04-29T03:23:30.761Z,100108.25
2018-04-29T03:25:58.385Z,100100.03
2018-04-29T03:28:25.981Z,100106.89
2018-04-29T03:30:53.575Z,100110.07
2018-04-29T03:33:21.260Z,100111.52
2018-04-29T03:35:48.845Z,100120.33
2018-04-29T03:38:16.443Z,100119.70
2018-04-29T03:40:44.061Z,100114.80
2018-04-29T03:43:11.645Z,100124.24
2018-04-29T03:45:39.233Z,100118.17
2018-04-29T03:48:06.891Z,100113.78
2018-04-29T03:50:34.504Z,100118.34
2018-04-29T03:53:02.125Z,100117.59
2018-04-29T03:55:29.809Z,100126.89
2018-04-29T03:58:09.160Z,100131.05
2018-04-29T04:00:51.185Z,100135.44
2018-04-29T04:03:30.576Z,100133.38
2018-04-29T04:05:58.206Z,100137.14
2018-04-29T04:08:25.793Z,100137.69
2018-04-29T04:10:53.438Z,100133.70
2018-04-29T04:13:21.078Z,100140.94
2018-04-29T04:15:48.696Z,100139.42
2018-04-29T04:18:16.349Z,100139.50
2018-04-29T04:20:43.969Z,100145.98
2018-04-29T04:23:11.561Z,100143.44
2018-04-29T04:25:39.157Z,100142.17
2018-04-29T04:28:06.789Z,100144.63
2018-04-29T04:30:34.389Z,100154.50
2018-04-29T04:33:01.973Z,100155.89
2018-04-29T04:35:29.609Z,100150.67
2018-04-29T04:37:57.193Z,100155.26
2018-04-29T04:40:24.797Z,100161.00
2018-04-29T04:42:52.413Z,100163.69
2018-04-29T04:45:19.997Z,100172.87
2018-04-29T04:47:47.589Z,100173.89
2018-04-29T04:50:15.222Z,100165.44
2018-04-29T04:52:42.833Z,100164.38
2018-04-29T04:55:10.432Z,100169.92
2018-04-29T04:57:38.088Z,100169.13
2018-04-29T05:00:05.801Z,100163.24
2018-04-29T05:02:33.427Z,100168.75
2018-04-29T05:05:01.061Z,100164.28
2018-04-29T05:07:28.656Z,100163.59
2018-04-29T05:09:56.249Z,100162.75
2018-04-29T05:12:23.937Z,100163.85
2018-04-29T05:14:51.532Z,100163.00
2018-04-29T05:17:19.130Z,100166.73
2018-04-29T05:19:46.761Z,100168.55
2018-04-29T05:22:14.381Z,100166.64
2018-04-29T05:24:41.999Z,100171.19
2018-04-29T05:27:09.655Z,100171.89
2018-04-29T05:29:37.249Z,100173.17
2018-04-29T05:32:04.837Z,100176.94
2018-04-29T05:34:32.470Z,100169.34
2018-04-29T05:37:00.058Z,100173.08
2018-04-29T05:39:27.643Z,100173.22
2018-04-29T05:41:55.310Z,100172.64
2018-04-29T05:44:22.922Z,100175.09
2018-04-29T05:46:50.563Z,100177.39
2018-04-29T05:49:18.218Z,100182.08
2018-04-29T05:51:45.844Z,100176.00
2018-04-29T05:54:13.457Z,100177.07
2018-04-29T05:56:41.085Z,100172.63
2018-04-29T05:59:08.698Z,100174.70
2018-04-29T06:01:36.319Z,100169.95
2018-04-29T06:04:04.018Z,100174.00
2018-04-29T06:06:31.712Z,100175.48
2018-04-29T06:08:59.306Z,100176.06
2018-04-29T06:11:26.966Z,100164.11
2018-04-29T06:13:54.611Z,100160.06
2018-04-29T06:16:22.235Z,100164.45
2018-04-29T06:18:50.720Z,100169.77
2018-04-29T06:21:18.317Z,100159.05
2018-04-29T06:23:45.904Z,100165.05
2018-04-29T06:26:13.595Z,100168.95
2018-04-29T06:28:41.246Z,100167.56
2018-04-29T06:31:08.837Z,100170.27
2018-04-29T06:33:36.561Z,100164.61
2018-04-29T06:36:04.189Z,100159.50
2018-04-29T06:38:31.794Z,100165.43
2018-04-29T06:40:59.418Z,100161.06
2018-04-29T06:43:27.021Z,100160.44
2018-04-29T06:45:54.631Z,100162.15
2018-04-29T06:48:22.265Z,100165.52
2018-04-29T06:50:49.841Z,100158.95
2018-04-29T06:53:17.453Z,100167.73
2018-04-29T06:55:45.515Z,100166.17
2018-04-29T06:58:13.113Z,100170.94
2018-04-29T07:00:40.830Z,100171.88
2018-04-29T07:03:08.492Z,100176.34
2018-04-29T07:05:36.140Z,100176.52
2018-04-29T07:08:03.725Z,100168.54
2018-04-29T07:10:31.341Z,100171.93
2018-04-29T07:12:58.961Z,100174.42
2018-04-29T07:15:26.587Z,100170.81
2018-04-29T07:17:54.257Z,100167.61
2018-04-29T07:20:21.879Z,100169.27
2018-04-29T07:22:49.489Z,100173.28
2018-04-29T07:25:17.202Z,100167.53
2018-04-29T07:27:44.813Z,100168.63
2018-04-29T07:30:12.470Z,100171.34
2018-04-29T07:32:40.148Z,100166.73
2018-04-29T07:35:13.638Z,100161.27
2018-04-29T07:37:41.333Z,100154.92
2018-04-29T07:40:09.009Z,100156.83
2018-04-29T07:42:36.625Z,100157.34
2018-04-29T07:45:04.342Z,100159.30
2018-04-29T07:47:31.954Z,100156.69
2018-04-29T07:49:59.722Z,100154.13
2018-04-29T07:52:27.580Z,100151.79
2018-04-29T07:54:55.110Z,100154.95
2018-04-29T07:57:22.733Z,100164.66
2018-04-29T07:59:50.429Z,100159.05
2018-04-29T08:02:18.102Z,100162.01
2018-04-29T08:04:45.709Z,100162.28
2018-04-29T08:07:14.467Z,100163.36
2018-04-29T08:09:42.116Z,100160.76
2018-04-29T08:12:09.770Z,100157.58
2018-04-29T08:14:37.506Z,100159.48
2018-04-29T08:17:05.178Z,100157.27
2018-04-29T08:19:32.939Z,100153.33
2018-04-29T08:22:00.737Z,100149.67
2018-04-29T08:24:28.435Z,100141.06
2018-04-29T08:26:56.146Z,100142.95
2018-04-29T08:29:23.925Z,100147.97
2018-04-29T08:31:51.601Z,100140.70
2018-04-29T08:34:19.266Z,100141.99
2018-04-29T08:36:46.925Z,100145.63
2018-04-29T08:39:14.545Z,100140.64
2018-04-29T08:41:42.204Z,100133.62
2018-04-29T08:44:09.882Z,100135.06
2018-04-29T08:46:37.550Z,100136.28
2018-04-29T08:49:05.150Z,100131.00
2018-04-29T08:51:34.813Z,100131.87
2018-04-29T08:54:02.434Z,100128.72
2018-04-29T08:56:30.026Z,100118.71
2018-04-29T08:58:57.715Z,100122.05
2018-04-29T09:01:25.325Z,100117.12
2018-04-29T09:03:52.980Z,100113.81
2018-04-29T09:06:20.575Z,100120.72
2018-04-29T09:08:48.162Z,100112.38
2018-04-29T09:11:15.780Z,100110.25
2018-04-29T09:13:43.401Z,100108.28
2018-04-29T09:16:11.007Z,100109.70
2018-04-29T09:18:38.615Z,100108.66
2018-04-29T09:21:06.234Z,100101.25
2018-04-29T09:23:33.877Z,100089.11
2018-04-29T09:26:01.465Z,100081.83
2018-04-29T09:28:29.098Z,100086.55
2018-04-29T09:30:56.696Z,100082.52
2018-04-29T09:33:24.292Z,100076.69
2018-04-29T09:35:51.929Z,100079.07
2018-04-29T09:38:19.538Z,100075.02
2018-04-29T09:40:47.203Z,100070.80
2018-04-29T09:43:14.889Z,100074.50
2018-04-29T09:45:42.470Z,100074.81
2018-04-29T09:48:10.082Z,100071.91
2018-04-29T09:50:37.737Z,100067.16
2018-04-29T09:53:05.333Z,100056.84
2018-04-29T09:55:32.925Z,100050.59
2018-04-29T09:58:00.558Z,100045.22
2018-04-29T10:00:28.231Z,100046.11
2018-04-29T10:03:11.698Z,100043.20
2018-04-29T10:05:39.325Z,100038.83
2018-04-29T10:08:06.961Z,100034.58
2018-04-29T10:10:34.597Z,100032.70
2018-04-29T10:13:02.186Z,100030.64
2018-04-29T10:15:29.776Z,100034.80
2018-04-29T10:17:57.413Z,100019.95
2018-04-29T10:20:25.001Z,100020.80
2018-04-29T10:22:52.591Z,100019.38
2018-04-29T10:25:20.260Z,100015.69
2018-04-29T10:27:47.876Z,100010.55
2018-04-29T10:30:15.473Z,100014.09
2018-04-29T10:32:43.138Z,100008.50
2018-04-29T10:35:10.729Z,99999.88
2018-04-29T10:37:38.329Z,100001.70
2018-04-29T10:40:06.042Z,99989.67
2018-04-29T10:42:33.662Z,99990.39
2018-04-29T10:45:01.268Z,99985.95
2018-04-29T10:47:28.893Z,99987.56
2018-04-29T10:49:56.473Z,99985.41
2018-04-29T10:52:24.159Z,99984.90
2018-04-29T10:54:51.795Z,99985.37
2018-04-29T10:57:19.423Z,99972.30
2018-04-29T10:59:47.122Z,99976.80
2018-04-29T11:02:14.908Z,99969.42
2018-04-29T11:04:42.598Z,99962.78
2018-04-29T11:07:10.209Z,99963.61
2018-04-29T11:09:37.881Z,99973.14
2018-04-29T11:12:05.549Z,99962.22
2018-04-29T11:14:33.223Z,99956.95
2018-04-29T11:17:00.877Z,99949.94
2018-04-29T11:19:28.571Z,99948.16
2018-04-29T11:21:56.234Z,99958.01
2018-04-29T11:24:24.010Z,99952.29
2018-04-29T11:26:51.715Z,99944.42
2018-04-29T11:29:19.418Z,99941.52
2018-04-29T11:31:47.064Z,99939.00
2018-04-29T11:34:14.749Z,99937.59
2018-04-29T11:36:42.401Z,99932.92
2018-04-29T11:39:10.038Z,99928.64
2018-04-29T11:41:37.658Z,99934.50
2018-04-29T11:44:05.320Z,99923.91
2018-04-29T11:46:32.984Z,99917.30
2018-04-29T11:49:00.593Z,99919.83
2018-04-29T11:51:28.306Z,99918.03
2018-04-29T11:53:55.986Z,99907.20
2018-04-29T11:56:23.666Z,99904.60
2018-04-29T11:58:51.280Z,99904.95
2018-04-29T12:01:18.937Z,99901.87
2018-04-29T12:03:46.553Z,99889.50
2018-04-29T12:06:14.161Z,99892.30
2018-04-29T12:08:41.790Z,99877.32
2018-04-29T12:11:09.369Z,99881.03
2018-04-29T12:13:36.953Z,99879.98
2018-04-29T12:16:04.617Z,99868.75
2018-04-29T12:18:32.206Z,99873.22
2018-04-29T12:20:59.797Z,99866.94
2018-04-29T12:23:27.422Z,99863.13
2018-04-29T12:25:55.041Z,99862.85
2018-04-29T12:28:22.629Z,99859.96
2018-04-29T12:30:50.249Z,99850.28
2018-04-29T12:33:17.827Z,99849.52
2018-04-29T12:35:45.453Z,99850.03
2018-04-29T12:38:13.141Z,99838.64
2018-04-29T12:40:40.718Z,99828.63
2018-04-29T12:43:08.293Z,99825.77
2018-04-29T12:45:35.910Z,99821.34
2018-04-29T12:48:03.498Z,99821.86
2018-04-29T12:50:31.109Z,99814.96
2018-04-29T12:52:58.747Z,99803.57
2018-04-29T12:55:26.349Z,99794.84
2018-04-29T12:57:53.974Z,99793.08
2018-04-29T13:00:21.638Z,99781.11
2018-04-29T13:02:49.205Z,99778.88
2018-04-29T13:05:16.886Z,99773.59
2018-04-29T13:07:44.569Z,99775.03
2018-04-29T13:10:12.154Z,99766.23
2018-04-29T13:12:39.750Z,99771.75
2018-04-29T13:15:07.374Z,99772.67
2018-04-29T13:17:34.972Z,99770.72
2018-04-29T13:20:02.571Z,99778.48
2018-04-29T13:22:30.200Z,99768.73
2018-04-29T13:24:57.780Z,99764.17
2018-04-29T13:27:25.387Z,99767.85
2018-04-29T13:29:53.041Z,99758.77
2018-04-29T13:32:20.663Z,99760.36
2018-04-29T13:34:48.251Z,99752.34
2018-04-29T13:37:15.897Z,99751.02
2018-04-29T13:39:43.489Z,99748.39
2018-04-29T13:42:11.176Z,99745.06
2018-04-29T13:44:38.757Z,99739.84
2018-04-29T13:47:06.350Z,99738.91
2018-04-29T13:49:33.950Z,99740.06
2018-04-29T13:52:01.598Z,99748.29
2018-04-29T13:54:29.183Z,99745.35
2018-04-29T13:56:56.782Z,99729.02
2018-04-29T13:59:24.366Z,99719.94
2018-04-29T14:01:52.038Z,99724.94
2018-04-29T14:04:19.643Z,99717.58
2018-04-29T14:06:47.309Z,99714.82
2018-04-29T14:09:14.909Z,99713.45
2018-04-29T14:11:42.510Z,99721.33
2018-04-29T14:14:10.099Z,99718.52
2018-04-29T14:16:37.807Z,99722.52
2018-04-29T14:19:05.412Z,99720.30
2018-04-29T14:21:33.008Z,99715.38
2018-04-29T14:24:00.598Z,99709.77
2018-04-29T14:26:28.177Z,99720.08
2018-04-29T14:28:55.769Z,99715.09
2018-04-29T14:31:23.450Z,99719.69
2018-04-29T14:33:51.023Z,99715.16
2018-04-29T14:36:18.614Z,99714.47
2018-04-29T14:38:46.249Z,99714.16
2018-04-29T14:41:13.850Z,99709.22
2018-04-29T14:43:41.441Z,99708.80
2018-04-29T14:46:09.034Z,99710.73
2018-04-29T14:48:36.633Z,99708.42
2018-04-29T14:51:04.248Z,99705.08
2018-04-29T14:53:31.838Z,99708.48
2018-04-29T14:55:59.479Z,99711.85
2018-04-29T14:58:27.083Z,99706.52
2018-04-29T15:00:54.661Z,99700.40
2018-04-29T15:03:22.246Z,99709.98
2018-04-29T15:05:49.862Z,99702.81
2018-04-29T15:08:17.462Z,99698.41
2018-04-29T15:10:45.046Z,99697.34
2018-04-29T15:13:12.674Z,99696.23
2018-04-29T15:15:40.355Z,99696.73
2018-04-29T15:18:07.969Z,99696.41
2018-04-29T15:20:35.598Z,99696.30
2018-04-29T15:23:03.225Z,99702.73
2018-04-29T15:25:30.818Z,99698.64
2018-04-29T15:27:58.485Z,99696.33
2018-04-29T15:30:26.082Z,99701.73
2018-04-29T15:32:53.665Z,99694.94
2018-04-29T15:35:21.292Z,99697.87
2018-04-29T15:37:48.877Z,99691.17
2018-04-29T15:40:16.470Z,99695.83
2018-04-29T15:42:44.118Z,99690.08
2018-04-29T15:45:11.722Z,99693.08
2018-04-29T15:47:39.370Z,99695.92
2018-04-29T15:50:07.023Z,99686.64
2018-04-29T15:52:34.666Z,99694.23
2018-04-29T15:55:02.256Z,99689.06
2018-04-29T15:57:29.914Z,99696.92
2018-04-29T15:59:57.518Z,99695.28
2018-04-29T16:02:25.114Z,99695.27
2018-04-29T16:04:52.778Z,99694.11
2018-04-29T16:07:20.378Z,99692.33
2018-04-29T16:09:47.973Z,99695.77
2018-04-29T16:12:15.609Z,99700.48
2018-04-29T16:14:43.226Z,99693.51
2018-04-29T16:17:10.942Z,99703.04
2018-04-29T16:19:38.558Z,99701.02
2018-04-29T16:22:06.141Z,99698.89
2018-04-29T16:24:33.733Z,99699.64
2018-04-29T16:27:01.336Z,99700.91
2018-04-29T16:29:28.983Z,99705.86
2018-04-29T16:31:56.570Z,99700.07
2018-04-29T16:34:24.165Z,99701.59
2018-04-29T16:36:51.830Z,99704.41
2018-04-29T16:39:19.409Z,99699.56
2018-04-29T16:41:46.993Z,99706.89
2018-04-29T16:44:14.609Z,99711.22
2018-04-29T16:46:42.198Z,99710.70
2018-04-29T16:49:09.786Z,99712.73
2018-04-29T16:51:37.417Z,99712.84
2018-04-29T16:54:04.997Z,99706.63
2018-04-29T16:56:32.677Z,99713.04
2018-04-29T16:59:00.394Z,99710.64
2018-04-29T17:01:28.075Z,99714.18
2018-04-29T17:03:55.686Z,99718.86
2018-04-29T17:06:23.381Z,99717.88
2018-04-29T17:08:50.994Z,99723.22
2018-04-29T17:11:18.630Z,99726.61
2018-04-29T17:13:46.310Z,99726.43
2018-04-29T17:16:13.897Z,99732.83
2018-04-29T17:18:41.558Z,99728.64
2018-04-29T17:21:09.922Z,99733.94
2018-04-29T17:23:37.511Z,99736.11
2018-04-29T17:26:05.219Z,99743.61
2018-04-29T17:28:32.805Z,99747.89
2018-04-29T17:31:00.425Z,99751.09
2018-04-29T17:33:28.042Z,99760.45
2018-04-29T17:35:55.633Z,99753.08
2018-04-29T17:38:23.254Z,99756.81
2018-04-29T17:40:50.874Z,99766.11
2018-04-29T17:43:18.491Z,99774.47
2018-04-29T17:45:46.109Z,99776.91
2018-04-29T17:48:13.741Z,99776.86
2018-04-29T17:50:41.325Z,99773.86
2018-04-29T17:53:08.910Z,99782.75
2018-04-29T17:55:36.535Z,99788.90
2018-04-29T17:58:04.239Z,99783.03
2018-04-29T18:00:31.842Z,99791.42
2018-04-29T18:02:59.512Z,99796.81
2018-04-29T18:05:27.194Z,99803.66
2018-04-29T18:07:54.815Z,99802.02
2018-04-29T18:10:22.474Z,99810.34
2018-04-29T18:12:50.106Z,99820.48
2018-04-29T18:15:17.718Z,99825.44
2018-04-29T18:17:45.393Z,99825.08
2018-04-29T18:20:13.002Z,99833.78
2018-04-29T18:22:40.662Z,99830.42
2018-04-29T18:25:08.282Z,99837.30
2018-04-29T18:27:36.070Z,99840.84
2018-04-29T18:30:03.746Z,99847.35
2018-04-29T18:32:31.373Z,99848.37
2018-04-29T18:34:59.067Z,99852.65
2018-04-29T18:37:26.782Z,99848.78
2018-04-29T18:39:54.509Z,99848.06
2018-04-29T18:42:22.209Z,99856.55
2018-04-29T18:44:49.854Z,99858.57
2018-04-29T18:47:17.442Z,99855.71
2018-04-29T18:49:45.129Z,99861.78
2018-04-29T18:52:12.778Z,99855.02
2018-04-29T18:54:40.403Z,99870.08
2018-04-29T18:57:08.101Z,99873.04
2018-04-29T18:59:35.726Z,99884.43
2018-04-29T19:02:03.362Z,99886.52
2018-04-29T19:04:30.990Z,99897.30
2018-04-29T19:06:58.590Z,99901.50
2018-04-29T19:09:26.203Z,99898.85
2018-04-29T19:11:53.903Z,99906.78
2018-04-29T19:14:21.534Z,99906.77
2018-04-29T19:16:49.323Z,99912.12
2018-04-29T19:19:16.938Z,99919.81
2018-04-29T19:21:44.574Z,99911.28
2018-04-29T19:24:12.361Z,99921.23
2018-04-29T19:26:40.546Z,99916.29
2018-04-29T19:29:08.161Z,99921.23
2018-04-29T19:31:36.777Z,99932.08
2018-04-29T19:34:04.322Z,99925.58
2018-04-29T19:36:31.910Z,99919.09
2018-04-29T19:38:59.504Z,99921.52
2018-04-29T19:41:27.082Z,99919.09
2018-04-29T19:43:54.758Z,99916.96
2018-04-29T19:46:22.326Z,99915.97
2018-04-29T19:48:49.922Z,99920.14
2018-04-29T19:51:17.700Z,99922.28
2018-04-29T19:53:45.381Z,99920.19
2018-04-29T19:56:13.079Z,99924.87
2018-04-29T19:58:40.818Z,99933.84
2018-04-29T20:01:08.434Z,99934.81
2018-04-29T20:03:36.148Z,99929.29
2018-04-29T20:06:03.754Z,99933.77
2018-04-29T20:08:31.337Z,99925.17
2018-04-29T20:10:59.029Z,99937.28
2018-04-29T20:13:26.738Z,99933.18
2018-04-29T20:15:55.294Z,99935.39
2018-04-29T20:18:23.089Z,99934.17
2018-04-29T20:20:50.725Z,99934.28
2018-04-29T20:23:18.338Z,99937.54
2018-04-29T20:25:45.965Z,99941.90
2018-04-29T20:28:13.639Z,99943.48
2018-04-29T20:30:41.295Z,99937.47
2018-04-29T20:33:08.909Z,99931.83
2018-04-29T20:35:36.578Z,99940.91
2018-04-29T20:38:04.283Z,99939.08
2018-04-29T20:40:31.886Z,99932.85
2018-04-29T20:42:59.552Z,99924.23
2018-04-29T20:45:27.168Z,99933.13
2018-04-29T20:47:54.794Z,99938.06
2018-04-29T20:50:22.562Z,99934.19
2018-04-29T20:52:50.253Z,99933.88
2018-04-29T20:55:18.084Z,99938.90
2018-04-29T20:57:45.785Z,99941.09
2018-04-29T21:00:13.429Z,99944.41
2018-04-29T21:02:41.074Z,99940.37
2018-04-29T21:05:08.790Z,99946.48
2018-04-29T21:07:36.499Z,99936.38
2018-04-29T21:10:04.162Z,99931.81
2018-04-29T21:12:31.831Z,99934.75
2018-04-29T21:14:59.526Z,99931.64
2018-04-29T21:17:27.325Z,99936.09
2018-04-29T21:19:54.962Z,99935.98
2018-04-29T21:22:22.668Z,99939.91
2018-04-29T21:24:50.281Z,99941.17
2018-04-29T21:27:17.905Z,99938.30
2018-04-29T21:29:46.034Z,99940.67
2018-04-29T21:32:13.693Z,99944.94
2018-04-29T21:34:41.407Z,99937.77
2018-04-29T21:37:09.082Z,99936.50
2018-04-29T21:39:36.729Z,99940.13
2018-04-29T21:42:04.375Z,99942.61
2018-04-29T21:44:32.056Z,99938.63
2018-04-29T21:46:59.762Z,99944.16
2018-04-29T21:49:27.402Z,99942.48
2018-04-29T21:51:55.102Z,99946.47
2018-04-29T21:54:22.790Z,99941.88
2018-04-29T21:56:50.410Z,99947.13
2018-04-29T21:59:18.130Z,99943.28
2018-04-29T22:01:45.846Z,99949.50
2018-04-29T22:04:13.566Z,99948.70
2018-04-29T22:06:41.235Z,99942.70
2018-04-29T22:09:08.941Z,99943.30
2018-04-29T22:11:36.656Z,99942.56
2018-04-29T22:14:04.310Z,99944.86
2018-04-29T22:16:31.994Z,99944.50
2018-04-29T22:18:59.735Z,99947.77
2018-04-29T22:21:27.429Z,99943.85
2018-04-29T22:23:55.146Z,99949.26
2018-04-29T22:26:22.839Z,99947.30
2018-04-29T22:28:50.460Z,99951.84
2018-04-29T22:31:18.156Z,99955.66
2018-04-29T22:33:45.789Z,99954.33
2018-04-29T22:36:13.393Z,99954.96
2018-04-29T22:38:41.045Z,99950.52
2018-04-29T22:41:08.722Z,99939.91
2018-04-29T22:43:36.394Z,99942.96
2018-04-29T22:46:04.018Z,99948.73
2018-04-29T22:48:31.634Z,99945.38
2018-04-29T22:50:59.290Z,99938.22
2018-04-29T22:53:26.980Z,99942.86
2018-04-29T22:55:54.585Z,99941.90
2018-04-29T22:58:22.296Z,99939.37
2018-04-29T23:00:50.014Z,99944.64
2018-04-29T23:03:17.650Z,99944.17
2018-04-29T23:05:45.331Z,99950.63
2018-04-29T23:08:12.998Z,99948.84
2018-04-29T23:10:40.617Z,99948.67
2018-04-29T23:13:08.290Z,99943.36
2018-04-29T23:15:35.877Z,99937.19
2018-04-29T23:18:03.594Z,99929.77
2018-04-29T23:20:31.294Z,99935.83
2018-04-29T23:22:58.941Z,99936.91
2018-04-29T23:25:26.626Z,99932.43
2018-04-29T23:27:54.242Z,99930.41
2018-04-29T23:30:21.957Z,99933.22
2018-04-29T23:32:49.672Z,99931.50
2018-04-29T23:35:17.297Z,99926.84
2018-04-29T23:37:44.950Z,99931.78
2018-04-29T23:40:12.586Z,99924.72
2018-04-29T23:42:40.242Z,99919.45
2018-04-29T23:45:07.873Z,99918.16
2018-04-29T23:47:35.622Z,99922.09
2018-04-29T23:50:03.303Z,99916.33
2018-04-29T23:52:30.942Z,99909.77
2018-04-29T23:54:58.635Z,99912.88
2018-04-29T23:57:26.296Z,99911.98
2018-04-29T23:59:53.983Z,99909.53
